sensor_id;sensor_type;location;lat;lon;timestamp;P1;durP1;ratioP1;P2;durP2;ratioP2
29688;SDS011;16600;47.444;8.334;2023-09-30T00:00:44;15.77;;;8.40;;
29688;SDS011;16600;47.444;8.334;2023-09-30T00:03:11;19.45;;;9.27;;
29688;SDS011;16600;47.444;8.334;2023-09-30T00:05:37;19.88;;;9.48;;
29688;SDS011;16600;47.444;8.334;2023-09-30T00:08:04;25.98;;;11.73;;
29688;SDS011;16600;47.444;8.334;2023-09-30T00:10:33;18.50;;;10.35;;
29688;SDS011;16600;47.444;8.334;2023-09-30T00:12:59;20.02;;;10.55;;
29688;SDS011;16600;47.444;8.334;2023-09-30T00:15:25;16.98;;;10.45;;
29688;SDS011;16600;47.444;8.334;2023-09-30T00:17:51;17.88;;;9.27;;
29688;SDS011;16600;47.444;8.334;2023-09-30T00:20:17;16.50;;;9.07;;
29688;SDS011;16600;47.444;8.334;2023-09-30T00:22:44;17.80;;;9.43;;
29688;SDS011;16600;47.444;8.334;2023-09-30T00:25:10;18.02;;;9.57;;
29688;SDS011;16600;47.444;8.334;2023-09-30T00:27:39;18.60;;;9.55;;
29688;SDS011;16600;47.444;8.334;2023-09-30T00:30:06;18.83;;;9.57;;
29688;SDS011;16600;47.444;8.334;2023-09-30T00:32:33;22.67;;;8.98;;
29688;SDS011;16600;47.444;8.334;2023-09-30T00:35:02;18.70;;;8.27;;
29688;SDS011;16600;47.444;8.334;2023-09-30T00:37:33;18.15;;;8.77;;
29688;SDS011;16600;47.444;8.334;2023-09-30T00:40:05;20.25;;;9.45;;
29688;SDS011;16600;47.444;8.334;2023-09-30T00:42:31;17.85;;;9.32;;
29688;SDS011;16600;47.444;8.334;2023-09-30T00:44:58;26.73;;;9.70;;
29688;SDS011;16600;47.444;8.334;2023-09-30T00:47:24;16.80;;;8.27;;
29688;SDS011;16600;47.444;8.334;2023-09-30T00:49:54;26.25;;;8.52;;
29688;SDS011;16600;47.444;8.334;2023-09-30T00:52:20;16.95;;;9.57;;
29688;SDS011;16600;47.444;8.334;2023-09-30T00:54:46;22.23;;;8.40;;
29688;SDS011;16600;47.444;8.334;2023-09-30T00:57:13;17.08;;;9.30;;
29688;SDS011;16600;47.444;8.334;2023-09-30T00:59:44;15.82;;;8.57;;
29688;SDS011;16600;47.444;8.334;2023-09-30T01:02:10;16.77;;;7.90;;
29688;SDS011;16600;47.444;8.334;2023-09-30T01:04:37;19.20;;;9.00;;
29688;SDS011;16600;47.444;8.334;2023-09-30T01:07:03;17.42;;;8.20;;
29688;SDS011;16600;47.444;8.334;2023-09-30T01:09:30;16.27;;;8.68;;
29688;SDS011;16600;47.444;8.334;2023-09-30T01:11:57;15.88;;;8.55;;
29688;SDS011;16600;47.444;8.334;2023-09-30T01:14:30;31.42;;;7.75;;
29688;SDS011;16600;47.444;8.334;2023-09-30T01:16:56;28.73;;;8.52;;
29688;SDS011;16600;47.444;8.334;2023-09-30T01:19:23;18.05;;;9.13;;
29688;SDS011;16600;47.444;8.334;2023-09-30T01:21:55;12.77;;;7.47;;
29688;SDS011;16600;47.444;8.334;2023-09-30T01:24:25;13.82;;;7.88;;
29688;SDS011;16600;47.444;8.334;2023-09-30T01:26:56;18.55;;;8.68;;
29688;SDS011;16600;47.444;8.334;2023-09-30T01:29:22;19.20;;;9.45;;
29688;SDS011;16600;47.444;8.334;2023-09-30T01:31:50;21.52;;;7.95;;
29688;SDS011;16600;47.444;8.334;2023-09-30T01:34:17;15.23;;;8.23;;
29688;SDS011;16600;47.444;8.334;2023-09-30T01:36:43;13.75;;;7.75;;
29688;SDS011;16600;47.444;8.334;2023-09-30T01:39:12;15.23;;;7.97;;
29688;SDS011;16600;47.444;8.334;2023-09-30T01:41:39;17.13;;;8.48;;
29688;SDS011;16600;47.444;8.334;2023-09-30T01:44:08;16.35;;;8.07;;
29688;SDS011;16600;47.444;8.334;2023-09-30T01:46:35;13.35;;;7.72;;
29688;SDS011;16600;47.444;8.334;2023-09-30T01:49:02;12.75;;;7.28;;
29688;SDS011;16600;47.444;8.334;2023-09-30T01:51:29;11.82;;;6.80;;
29688;SDS011;16600;47.444;8.334;2023-09-30T01:53:58;11.77;;;6.80;;
29688;SDS011;16600;47.444;8.334;2023-09-30T01:56:24;19.88;;;8.07;;
29688;SDS011;16600;47.444;8.334;2023-09-30T01:58:50;15.80;;;8.75;;
29688;SDS011;16600;47.444;8.334;2023-09-30T02:01:17;14.52;;;6.85;;
29688;SDS011;16600;47.444;8.334;2023-09-30T02:03:43;14.38;;;7.57;;
29688;SDS011;16600;47.444;8.334;2023-09-30T02:06:12;11.55;;;7.45;;
29688;SDS011;16600;47.444;8.334;2023-09-30T02:08:43;15.13;;;7.40;;
29688;SDS011;16600;47.444;8.334;2023-09-30T02:11:12;14.95;;;7.22;;
29688;SDS011;16600;47.444;8.334;2023-09-30T02:13:40;14.15;;;7.47;;
29688;SDS011;16600;47.444;8.334;2023-09-30T02:16:13;17.77;;;7.78;;
29688;SDS011;16600;47.444;8.334;2023-09-30T02:18:40;15.88;;;7.13;;
29688;SDS011;16600;47.444;8.334;2023-09-30T02:21:07;15.38;;;8.00;;
29688;SDS011;16600;47.444;8.334;2023-09-30T02:23:37;15.25;;;7.57;;
29688;SDS011;16600;47.444;8.334;2023-09-30T02:26:04;18.95;;;7.50;;
29688;SDS011;16600;47.444;8.334;2023-09-30T02:28:31;17.40;;;6.97;;
29688;SDS011;16600;47.444;8.334;2023-09-30T02:31:00;22.02;;;7.88;;
29688;SDS011;16600;47.444;8.334;2023-09-30T02:33:29;20.38;;;7.53;;
29688;SDS011;16600;47.444;8.334;2023-09-30T02:35:55;13.25;;;6.90;;
29688;SDS011;16600;47.444;8.334;2023-09-30T02:38:21;13.27;;;7.00;;
29688;SDS011;16600;47.444;8.334;2023-09-30T02:40:48;11.95;;;6.50;;
29688;SDS011;16600;47.444;8.334;2023-09-30T02:43:17;15.38;;;7.68;;
29688;SDS011;16600;47.444;8.334;2023-09-30T02:45:43;13.07;;;6.45;;
29688;SDS011;16600;47.444;8.334;2023-09-30T02:48:10;18.52;;;5.95;;
29688;SDS011;16600;47.444;8.334;2023-09-30T02:50:36;15.82;;;5.70;;
29688;SDS011;16600;47.444;8.334;2023-09-30T02:53:02;11.20;;;5.32;;
29688;SDS011;16600;47.444;8.334;2023-09-30T02:55:28;8.98;;;5.03;;
29688;SDS011;16600;47.444;8.334;2023-09-30T02:57:54;7.03;;;4.93;;
29688;SDS011;16600;47.444;8.334;2023-09-30T03:00:21;14.30;;;5.20;;
29688;SDS011;16600;47.444;8.334;2023-09-30T03:02:52;11.02;;;5.30;;
29688;SDS011;16600;47.444;8.334;2023-09-30T03:05:19;11.77;;;6.15;;
29688;SDS011;16600;47.444;8.334;2023-09-30T03:07:46;10.15;;;5.85;;
29688;SDS011;16600;47.444;8.334;2023-09-30T03:10:12;10.32;;;5.68;;
29688;SDS011;16600;47.444;8.334;2023-09-30T03:12:39;15.63;;;5.75;;
29688;SDS011;16600;47.444;8.334;2023-09-30T03:15:06;14.43;;;6.25;;
29688;SDS011;16600;47.444;8.334;2023-09-30T03:17:32;9.38;;;5.65;;
29688;SDS011;16600;47.444;8.334;2023-09-30T03:19:58;10.07;;;5.40;;
29688;SDS011;16600;47.444;8.334;2023-09-30T03:22:27;9.30;;;5.13;;
29688;SDS011;16600;47.444;8.334;2023-09-30T03:24:55;10.02;;;5.57;;
29688;SDS011;16600;47.444;8.334;2023-09-30T03:27:23;10.93;;;5.72;;
29688;SDS011;16600;47.444;8.334;2023-09-30T03:29:49;10.60;;;5.50;;
29688;SDS011;16600;47.444;8.334;2023-09-30T03:32:15;9.60;;;5.60;;
29688;SDS011;16600;47.444;8.334;2023-09-30T03:34:41;14.63;;;5.65;;
29688;SDS011;16600;47.444;8.334;2023-09-30T03:37:10;13.60;;;6.25;;
29688;SDS011;16600;47.444;8.334;2023-09-30T03:39:36;10.75;;;5.50;;
29688;SDS011;16600;47.444;8.334;2023-09-30T03:42:03;16.88;;;6.35;;
29688;SDS011;16600;47.444;8.334;2023-09-30T03:44:29;21.98;;;6.38;;
29688;SDS011;16600;47.444;8.334;2023-09-30T03:46:55;15.38;;;6.28;;
29688;SDS011;16600;47.444;8.334;2023-09-30T03:49:22;11.95;;;6.35;;
29688;SDS011;16600;47.444;8.334;2023-09-30T03:51:48;14.55;;;6.95;;
29688;SDS011;16600;47.444;8.334;2023-09-30T03:54:26;13.57;;;7.35;;
29688;SDS011;16600;47.444;8.334;2023-09-30T03:56:52;14.10;;;6.95;;
29688;SDS011;16600;47.444;8.334;2023-09-30T03:59:19;11.65;;;6.50;;
29688;SDS011;16600;47.444;8.334;2023-09-30T04:03:02;12.55;;;6.10;;
29688;SDS011;16600;47.444;8.334;2023-09-30T04:05:28;10.35;;;6.20;;
29688;SDS011;16600;47.444;8.334;2023-09-30T04:07:59;13.30;;;6.38;;
29688;SDS011;16600;47.444;8.334;2023-09-30T04:10:25;11.43;;;5.82;;
29688;SDS011;16600;47.444;8.334;2023-09-30T04:12:52;15.02;;;6.25;;
29688;SDS011;16600;47.444;8.334;2023-09-30T04:15:20;13.63;;;6.18;;
29688;SDS011;16600;47.444;8.334;2023-09-30T04:17:49;11.82;;;5.80;;
29688;SDS011;16600;47.444;8.334;2023-09-30T04:20:19;14.43;;;6.00;;
29688;SDS011;16600;47.444;8.334;2023-09-30T04:22:49;13.52;;;5.82;;
29688;SDS011;16600;47.444;8.334;2023-09-30T04:25:16;13.07;;;6.05;;
29688;SDS011;16600;47.444;8.334;2023-09-30T04:27:42;10.57;;;5.32;;
29688;SDS011;16600;47.444;8.334;2023-09-30T04:30:08;9.38;;;5.93;;
29688;SDS011;16600;47.444;8.334;2023-09-30T04:32:36;12.93;;;5.97;;
29688;SDS011;16600;47.444;8.334;2023-09-30T04:35:04;15.65;;;6.45;;
29688;SDS011;16600;47.444;8.334;2023-09-30T04:37:30;14.52;;;6.30;;
29688;SDS011;16600;47.444;8.334;2023-09-30T04:39:56;12.15;;;5.72;;
29688;SDS011;16600;47.444;8.334;2023-09-30T04:42:24;12.30;;;5.50;;
29688;SDS011;16600;47.444;8.334;2023-09-30T04:44:53;12.35;;;5.55;;
29688;SDS011;16600;47.444;8.334;2023-09-30T04:47:21;17.25;;;6.50;;
29688;SDS011;16600;47.444;8.334;2023-09-30T04:49:47;17.55;;;6.10;;
29688;SDS011;16600;47.444;8.334;2023-09-30T04:52:13;17.55;;;6.05;;
29688;SDS011;16600;47.444;8.334;2023-09-30T04:54:47;14.75;;;6.35;;
29688;SDS011;16600;47.444;8.334;2023-09-30T04:57:16;10.43;;;6.10;;
29688;SDS011;16600;47.444;8.334;2023-09-30T04:59:51;9.45;;;5.75;;
29688;SDS011;16600;47.444;8.334;2023-09-30T05:02:19;9.32;;;5.60;;
29688;SDS011;16600;47.444;8.334;2023-09-30T05:04:45;12.93;;;5.90;;
29688;SDS011;16600;47.444;8.334;2023-09-30T05:07:11;10.70;;;6.32;;
29688;SDS011;16600;47.444;8.334;2023-09-30T05:09:39;19.20;;;7.60;;
29688;SDS011;16600;47.444;8.334;2023-09-30T05:12:07;14.15;;;7.40;;
29688;SDS011;16600;47.444;8.334;2023-09-30T05:14:36;15.60;;;8.27;;
29688;SDS011;16600;47.444;8.334;2023-09-30T05:17:04;16.73;;;7.78;;
29688;SDS011;16600;47.444;8.334;2023-09-30T05:19:33;12.55;;;7.55;;
29688;SDS011;16600;47.444;8.334;2023-09-30T05:22:03;17.23;;;7.97;;
29688;SDS011;16600;47.444;8.334;2023-09-30T05:24:31;22.73;;;8.90;;
29688;SDS011;16600;47.444;8.334;2023-09-30T05:26:57;21.95;;;10.02;;
29688;SDS011;16600;47.444;8.334;2023-09-30T05:29:23;18.98;;;10.10;;
29688;SDS011;16600;47.444;8.334;2023-09-30T05:31:49;26.85;;;9.63;;
29688;SDS011;16600;47.444;8.334;2023-09-30T05:34:15;17.77;;;10.57;;
29688;SDS011;16600;47.444;8.334;2023-09-30T05:36:42;17.42;;;9.30;;
29688;SDS011;16600;47.444;8.334;2023-09-30T05:39:08;24.35;;;10.35;;
29688;SDS011;16600;47.444;8.334;2023-09-30T05:41:36;24.15;;;10.98;;
29688;SDS011;16600;47.444;8.334;2023-09-30T05:44:03;14.55;;;9.18;;
29688;SDS011;16600;47.444;8.334;2023-09-30T05:46:35;18.98;;;9.85;;
29688;SDS011;16600;47.444;8.334;2023-09-30T05:49:01;24.02;;;10.20;;
29688;SDS011;16600;47.444;8.334;2023-09-30T05:51:27;17.67;;;9.73;;
29688;SDS011;16600;47.444;8.334;2023-09-30T05:53:53;15.93;;;9.60;;
29688;SDS011;16600;47.444;8.334;2023-09-30T05:56:20;22.25;;;10.45;;
29688;SDS011;16600;47.444;8.334;2023-09-30T05:58:46;26.25;;;10.93;;
29688;SDS011;16600;47.444;8.334;2023-09-30T06:01:13;22.42;;;10.65;;
29688;SDS011;16600;47.444;8.334;2023-09-30T06:03:45;18.85;;;10.45;;
29688;SDS011;16600;47.444;8.334;2023-09-30T06:06:15;23.92;;;10.07;;
29688;SDS011;16600;47.444;8.334;2023-09-30T06:08:45;21.30;;;10.10;;
29688;SDS011;16600;47.444;8.334;2023-09-30T06:11:20;22.98;;;11.55;;
29688;SDS011;16600;47.444;8.334;2023-09-30T06:13:50;24.90;;;10.25;;
29688;SDS011;16600;47.444;8.334;2023-09-30T06:16:18;17.67;;;10.90;;
29688;SDS011;16600;47.444;8.334;2023-09-30T06:18:52;20.73;;;11.88;;
29688;SDS011;16600;47.444;8.334;2023-09-30T06:21:21;21.35;;;11.23;;
29688;SDS011;16600;47.444;8.334;2023-09-30T06:23:47;18.83;;;10.75;;
29688;SDS011;16600;47.444;8.334;2023-09-30T06:26:17;19.08;;;10.55;;
29688;SDS011;16600;47.444;8.334;2023-09-30T06:28:43;20.33;;;10.70;;
29688;SDS011;16600;47.444;8.334;2023-09-30T06:31:10;24.38;;;11.85;;
29688;SDS011;16600;47.444;8.334;2023-09-30T06:33:37;20.98;;;10.95;;
29688;SDS011;16600;47.444;8.334;2023-09-30T06:36:09;16.13;;;10.02;;
29688;SDS011;16600;47.444;8.334;2023-09-30T06:38:36;17.70;;;11.43;;
29688;SDS011;16600;47.444;8.334;2023-09-30T06:41:03;16.95;;;10.77;;
29688;SDS011;16600;47.444;8.334;2023-09-30T06:43:32;19.08;;;10.40;;
29688;SDS011;16600;47.444;8.334;2023-09-30T06:46:07;17.48;;;9.43;;
29688;SDS011;16600;47.444;8.334;2023-09-30T06:48:34;21.98;;;10.80;;
29688;SDS011;16600;47.444;8.334;2023-09-30T06:51:01;17.65;;;10.45;;
29688;SDS011;16600;47.444;8.334;2023-09-30T06:53:30;14.25;;;7.97;;
29688;SDS011;16600;47.444;8.334;2023-09-30T06:55:56;15.55;;;10.23;;
29688;SDS011;16600;47.444;8.334;2023-09-30T06:58:22;18.75;;;10.52;;
29688;SDS011;16600;47.444;8.334;2023-09-30T07:00:54;21.08;;;10.23;;
29688;SDS011;16600;47.444;8.334;2023-09-30T07:03:20;18.58;;;9.88;;
29688;SDS011;16600;47.444;8.334;2023-09-30T07:05:46;15.85;;;10.35;;
29688;SDS011;16600;47.444;8.334;2023-09-30T07:08:18;20.42;;;10.90;;
29688;SDS011;16600;47.444;8.334;2023-09-30T07:10:47;15.98;;;9.95;;
29688;SDS011;16600;47.444;8.334;2023-09-30T07:13:16;23.30;;;10.13;;
29688;SDS011;16600;47.444;8.334;2023-09-30T07:15:46;18.92;;;10.07;;
29688;SDS011;16600;47.444;8.334;2023-09-30T07:18:12;15.20;;;9.73;;
29688;SDS011;16600;47.444;8.334;2023-09-30T07:20:38;17.20;;;9.73;;
29688;SDS011;16600;47.444;8.334;2023-09-30T07:23:07;17.42;;;10.00;;
29688;SDS011;16600;47.444;8.334;2023-09-30T07:25:36;16.33;;;9.25;;
29688;SDS011;16600;47.444;8.334;2023-09-30T07:28:02;14.70;;;9.55;;
29688;SDS011;16600;47.444;8.334;2023-09-30T07:30:29;19.25;;;9.93;;
29688;SDS011;16600;47.444;8.334;2023-09-30T07:32:56;17.38;;;9.43;;
29688;SDS011;16600;47.444;8.334;2023-09-30T07:35:23;20.80;;;10.45;;
29688;SDS011;16600;47.444;8.334;2023-09-30T07:37:49;20.25;;;10.10;;
29688;SDS011;16600;47.444;8.334;2023-09-30T07:40:18;20.00;;;9.52;;
29688;SDS011;16600;47.444;8.334;2023-09-30T07:42:47;21.30;;;10.63;;
29688;SDS011;16600;47.444;8.334;2023-09-30T07:45:13;23.98;;;10.45;;
29688;SDS011;16600;47.444;8.334;2023-09-30T07:47:45;20.13;;;10.00;;
29688;SDS011;16600;47.444;8.334;2023-09-30T07:50:15;20.25;;;10.43;;
29688;SDS011;16600;47.444;8.334;2023-09-30T07:52:47;15.38;;;9.18;;
29688;SDS011;16600;47.444;8.334;2023-09-30T07:55:13;19.98;;;9.60;;
29688;SDS011;16600;47.444;8.334;2023-09-30T07:57:40;18.73;;;10.00;;
29688;SDS011;16600;47.444;8.334;2023-09-30T08:00:10;18.17;;;9.25;;
29688;SDS011;16600;47.444;8.334;2023-09-30T08:02:41;16.52;;;10.32;;
29688;SDS011;16600;47.444;8.334;2023-09-30T08:05:07;17.52;;;9.85;;
29688;SDS011;16600;47.444;8.334;2023-09-30T08:07:36;22.40;;;9.57;;
29688;SDS011;16600;47.444;8.334;2023-09-30T08:10:04;21.05;;;9.90;;
29688;SDS011;16600;47.444;8.334;2023-09-30T08:12:32;17.65;;;9.23;;
29688;SDS011;16600;47.444;8.334;2023-09-30T08:14:58;15.00;;;9.45;;
29688;SDS011;16600;47.444;8.334;2023-09-30T08:17:24;16.73;;;9.50;;
29688;SDS011;16600;47.444;8.334;2023-09-30T08:19:51;13.95;;;8.43;;
29688;SDS011;16600;47.444;8.334;2023-09-30T08:22:17;14.05;;;9.00;;
29688;SDS011;16600;47.444;8.334;2023-09-30T08:24:43;17.90;;;9.98;;
29688;SDS011;16600;47.444;8.334;2023-09-30T08:27:09;11.98;;;8.48;;
29688;SDS011;16600;47.444;8.334;2023-09-30T08:29:35;14.15;;;9.25;;
29688;SDS011;16600;47.444;8.334;2023-09-30T08:32:02;23.55;;;8.50;;
29688;SDS011;16600;47.444;8.334;2023-09-30T08:34:29;23.45;;;8.25;;
29688;SDS011;16600;47.444;8.334;2023-09-30T08:36:55;16.30;;;9.43;;
29688;SDS011;16600;47.444;8.334;2023-09-30T08:39:22;15.25;;;8.93;;
29688;SDS011;16600;47.444;8.334;2023-09-30T08:41:51;13.88;;;9.27;;
29688;SDS011;16600;47.444;8.334;2023-09-30T08:44:18;19.42;;;8.93;;
29688;SDS011;16600;47.444;8.334;2023-09-30T08:46:47;14.20;;;8.02;;
29688;SDS011;16600;47.444;8.334;2023-09-30T08:49:17;20.52;;;8.45;;
29688;SDS011;16600;47.444;8.334;2023-09-30T08:51:45;12.48;;;8.30;;
29688;SDS011;16600;47.444;8.334;2023-09-30T08:54:14;17.42;;;8.45;;
29688;SDS011;16600;47.444;8.334;2023-09-30T08:56:41;13.48;;;8.13;;
29688;SDS011;16600;47.444;8.334;2023-09-30T08:59:12;9.98;;;6.72;;
29688;SDS011;16600;47.444;8.334;2023-09-30T09:01:40;17.27;;;8.32;;
29688;SDS011;16600;47.444;8.334;2023-09-30T09:04:06;12.00;;;7.55;;
29688;SDS011;16600;47.444;8.334;2023-09-30T09:06:36;16.00;;;7.20;;
29688;SDS011;16600;47.444;8.334;2023-09-30T09:09:15;12.50;;;7.90;;
29688;SDS011;16600;47.444;8.334;2023-09-30T09:11:48;16.35;;;8.18;;
29688;SDS011;16600;47.444;8.334;2023-09-30T09:14:17;14.05;;;8.63;;
29688;SDS011;16600;47.444;8.334;2023-09-30T09:16:53;16.10;;;8.50;;
29688;SDS011;16600;47.444;8.334;2023-09-30T09:19:19;13.63;;;8.63;;
29688;SDS011;16600;47.444;8.334;2023-09-30T09:21:56;12.68;;;7.85;;
29688;SDS011;16600;47.444;8.334;2023-09-30T09:24:29;17.25;;;8.48;;
29688;SDS011;16600;47.444;8.334;2023-09-30T09:27:08;15.57;;;8.40;;
29688;SDS011;16600;47.444;8.334;2023-09-30T09:29:35;12.75;;;8.65;;
29688;SDS011;16600;47.444;8.334;2023-09-30T09:32:13;15.20;;;8.48;;
29688;SDS011;16600;47.444;8.334;2023-09-30T09:34:40;12.57;;;7.93;;
29688;SDS011;16600;47.444;8.334;2023-09-30T09:37:19;16.30;;;8.45;;
29688;SDS011;16600;47.444;8.334;2023-09-30T09:39:52;19.58;;;8.80;;
29688;SDS011;16600;47.444;8.334;2023-09-30T09:42:31;9.82;;;6.10;;
29688;SDS011;16600;47.444;8.334;2023-09-30T09:45:03;12.02;;;7.97;;
29688;SDS011;16600;47.444;8.334;2023-09-30T09:47:33;13.23;;;7.82;;
29688;SDS011;16600;47.444;8.334;2023-09-30T09:50:00;19.80;;;8.77;;
29688;SDS011;16600;47.444;8.334;2023-09-30T09:52:28;17.60;;;8.32;;
29688;SDS011;16600;47.444;8.334;2023-09-30T09:54:54;17.85;;;8.30;;
29688;SDS011;16600;47.444;8.334;2023-09-30T09:57:23;16.70;;;8.60;;
29688;SDS011;16600;47.444;8.334;2023-09-30T09:59:51;14.15;;;8.43;;
29688;SDS011;16600;47.444;8.334;2023-09-30T10:03:02;11.35;;;6.82;;
29688;SDS011;16600;47.444;8.334;2023-09-30T10:05:29;15.07;;;8.13;;
29688;SDS011;16600;47.444;8.334;2023-09-30T10:08:05;13.98;;;7.40;;
29688;SDS011;16600;47.444;8.334;2023-09-30T10:10:36;14.45;;;7.97;;
29688;SDS011;16600;47.444;8.334;2023-09-30T10:13:06;17.83;;;8.70;;
29688;SDS011;16600;47.444;8.334;2023-09-30T10:18:05;20.40;;;9.18;;
29688;SDS011;16600;47.444;8.334;2023-09-30T10:20:38;13.02;;;8.63;;
29688;SDS011;16600;47.444;8.334;2023-09-30T10:23:23;14.95;;;9.20;;
29688;SDS011;16600;47.444;8.334;2023-09-30T10:25:53;16.77;;;8.93;;
29688;SDS011;16600;47.444;8.334;2023-09-30T10:31:17;16.17;;;9.23;;
29688;SDS011;16600;47.444;8.334;2023-09-30T10:39:00;16.50;;;9.30;;
29688;SDS011;16600;47.444;8.334;2023-09-30T10:46:53;15.25;;;9.07;;
29688;SDS011;16600;47.444;8.334;2023-09-30T10:51:50;18.75;;;8.43;;
29688;SDS011;16600;47.444;8.334;2023-09-30T10:54:21;15.57;;;8.43;;
29688;SDS011;16600;47.444;8.334;2023-09-30T10:56:49;19.67;;;10.23;;
29688;SDS011;16600;47.444;8.334;2023-09-30T10:59:18;17.77;;;9.45;;
29688;SDS011;16600;47.444;8.334;2023-09-30T11:01:45;21.33;;;9.95;;
29688;SDS011;16600;47.444;8.334;2023-09-30T11:04:14;13.75;;;8.88;;
29688;SDS011;16600;47.444;8.334;2023-09-30T11:06:41;14.75;;;9.18;;
29688;SDS011;16600;47.444;8.334;2023-09-30T11:09:18;18.92;;;9.40;;
29688;SDS011;16600;47.444;8.334;2023-09-30T11:11:48;17.90;;;10.57;;
29688;SDS011;16600;47.444;8.334;2023-09-30T11:14:24;17.65;;;10.27;;
29688;SDS011;16600;47.444;8.334;2023-09-30T11:16:51;19.02;;;9.38;;
29688;SDS011;16600;47.444;8.334;2023-09-30T11:19:18;24.23;;;10.18;;
29688;SDS011;16600;47.444;8.334;2023-09-30T11:21:50;12.65;;;8.23;;
29688;SDS011;16600;47.444;8.334;2023-09-30T11:24:17;16.42;;;9.65;;
29688;SDS011;16600;47.444;8.334;2023-09-30T11:26:46;15.80;;;9.80;;
29688;SDS011;16600;47.444;8.334;2023-09-30T11:29:15;15.82;;;9.68;;
29688;SDS011;16600;47.444;8.334;2023-09-30T11:31:46;18.88;;;10.27;;
29688;SDS011;16600;47.444;8.334;2023-09-30T11:34:12;19.33;;;11.63;;
29688;SDS011;16600;47.444;8.334;2023-09-30T11:36:39;18.90;;;10.27;;
29688;SDS011;16600;47.444;8.334;2023-09-30T11:39:08;15.88;;;9.65;;
29688;SDS011;16600;47.444;8.334;2023-09-30T11:41:38;17.30;;;10.23;;
29688;SDS011;16600;47.444;8.334;2023-09-30T11:44:06;18.60;;;9.68;;
29688;SDS011;16600;47.444;8.334;2023-09-30T11:46:49;19.50;;;10.45;;
29688;SDS011;16600;47.444;8.334;2023-09-30T11:51:50;17.13;;;9.73;;
29688;SDS011;16600;47.444;8.334;2023-09-30T11:54:17;18.20;;;9.73;;
29688;SDS011;16600;47.444;8.334;2023-09-30T11:56:43;21.77;;;10.40;;
29688;SDS011;16600;47.444;8.334;2023-09-30T11:59:09;18.63;;;10.32;;
29688;SDS011;16600;47.444;8.334;2023-09-30T12:01:38;17.67;;;10.57;;
29688;SDS011;16600;47.444;8.334;2023-09-30T12:04:07;16.80;;;10.80;;
29688;SDS011;16600;47.444;8.334;2023-09-30T12:06:34;17.90;;;10.02;;
29688;SDS011;16600;47.444;8.334;2023-09-30T12:09:03;17.38;;;10.73;;
29688;SDS011;16600;47.444;8.334;2023-09-30T12:11:30;11.65;;;7.18;;
29688;SDS011;16600;47.444;8.334;2023-09-30T12:13:56;13.82;;;8.45;;
29688;SDS011;16600;47.444;8.334;2023-09-30T12:16:22;16.08;;;9.38;;
29688;SDS011;16600;47.444;8.334;2023-09-30T12:18:49;21.83;;;10.55;;
29688;SDS011;16600;47.444;8.334;2023-09-30T12:21:16;20.00;;;10.02;;
29688;SDS011;16600;47.444;8.334;2023-09-30T12:23:45;16.52;;;9.73;;
29688;SDS011;16600;47.444;8.334;2023-09-30T12:26:14;25.10;;;10.60;;
29688;SDS011;16600;47.444;8.334;2023-09-30T12:28:43;17.08;;;8.02;;
29688;SDS011;16600;47.444;8.334;2023-09-30T12:31:19;18.85;;;9.60;;
29688;SDS011;16600;47.444;8.334;2023-09-30T12:33:52;14.75;;;8.38;;
29688;SDS011;16600;47.444;8.334;2023-09-30T12:36:21;12.45;;;8.50;;
29688;SDS011;16600;47.444;8.334;2023-09-30T12:38:50;14.43;;;7.97;;
29688;SDS011;16600;47.444;8.334;2023-09-30T12:41:19;18.60;;;8.35;;
29688;SDS011;16600;47.444;8.334;2023-09-30T12:43:50;14.85;;;9.10;;
29688;SDS011;16600;47.444;8.334;2023-09-30T12:46:20;13.85;;;9.00;;
29688;SDS011;16600;47.444;8.334;2023-09-30T12:48:53;16.13;;;9.45;;
29688;SDS011;16600;47.444;8.334;2023-09-30T12:51:23;23.73;;;9.32;;
29688;SDS011;16600;47.444;8.334;2023-09-30T12:53:50;23.08;;;9.45;;
29688;SDS011;16600;47.444;8.334;2023-09-30T12:56:16;13.55;;;8.63;;
29688;SDS011;16600;47.444;8.334;2023-09-30T12:58:42;16.83;;;8.65;;
29688;SDS011;16600;47.444;8.334;2023-09-30T13:01:09;13.88;;;8.38;;
29688;SDS011;16600;47.444;8.334;2023-09-30T13:03:38;16.33;;;9.57;;
29688;SDS011;16600;47.444;8.334;2023-09-30T13:06:04;19.42;;;9.52;;
29688;SDS011;16600;47.444;8.334;2023-09-30T13:08:33;14.82;;;9.10;;
29688;SDS011;16600;47.444;8.334;2023-09-30T13:11:02;13.32;;;9.23;;
29688;SDS011;16600;47.444;8.334;2023-09-30T13:13:29;13.50;;;9.52;;
29688;SDS011;16600;47.444;8.334;2023-09-30T13:15:59;19.13;;;8.65;;
29688;SDS011;16600;47.444;8.334;2023-09-30T13:18:29;14.10;;;8.75;;
29688;SDS011;16600;47.444;8.334;2023-09-30T13:21:03;14.23;;;8.32;;
29688;SDS011;16600;47.444;8.334;2023-09-30T13:23:38;15.68;;;9.15;;
29688;SDS011;16600;47.444;8.334;2023-09-30T13:26:04;12.57;;;7.78;;
29688;SDS011;16600;47.444;8.334;2023-09-30T13:28:33;15.73;;;10.13;;
29688;SDS011;16600;47.444;8.334;2023-09-30T13:30:59;13.23;;;9.40;;
29688;SDS011;16600;47.444;8.334;2023-09-30T13:33:29;18.27;;;10.90;;
29688;SDS011;16600;47.444;8.334;2023-09-30T13:35:57;22.42;;;11.70;;
29688;SDS011;16600;47.444;8.334;2023-09-30T13:38:23;19.27;;;10.43;;
29688;SDS011;16600;47.444;8.334;2023-09-30T13:40:49;21.58;;;10.13;;
29688;SDS011;16600;47.444;8.334;2023-09-30T13:43:16;19.25;;;10.75;;
29688;SDS011;16600;47.444;8.334;2023-09-30T13:45:42;21.95;;;12.00;;
29688;SDS011;16600;47.444;8.334;2023-09-30T13:48:11;14.05;;;9.45;;
29688;SDS011;16600;47.444;8.334;2023-09-30T13:50:37;15.65;;;9.48;;
29688;SDS011;16600;47.444;8.334;2023-09-30T13:53:03;17.38;;;9.40;;
29688;SDS011;16600;47.444;8.334;2023-09-30T13:55:30;16.38;;;9.65;;
29688;SDS011;16600;47.444;8.334;2023-09-30T13:57:57;18.42;;;9.40;;
29688;SDS011;16600;47.444;8.334;2023-09-30T14:00:23;19.35;;;9.10;;
29688;SDS011;16600;47.444;8.334;2023-09-30T14:02:49;15.48;;;8.80;;
29688;SDS011;16600;47.444;8.334;2023-09-30T14:05:20;14.70;;;7.90;;
29688;SDS011;16600;47.444;8.334;2023-09-30T14:07:46;14.95;;;7.90;;
29688;SDS011;16600;47.444;8.334;2023-09-30T14:10:13;19.88;;;8.27;;
29688;SDS011;16600;47.444;8.334;2023-09-30T14:12:40;18.00;;;8.73;;
29688;SDS011;16600;47.444;8.334;2023-09-30T14:15:09;14.38;;;7.80;;
29688;SDS011;16600;47.444;8.334;2023-09-30T14:17:36;12.13;;;7.65;;
29688;SDS011;16600;47.444;8.334;2023-09-30T14:20:06;12.85;;;8.15;;
29688;SDS011;16600;47.444;8.334;2023-09-30T14:22:32;13.55;;;7.95;;
29688;SDS011;16600;47.444;8.334;2023-09-30T14:24:59;12.90;;;8.30;;
29688;SDS011;16600;47.444;8.334;2023-09-30T14:27:27;17.85;;;8.70;;
29688;SDS011;16600;47.444;8.334;2023-09-30T14:29:53;11.45;;;7.65;;
29688;SDS011;16600;47.444;8.334;2023-09-30T14:32:20;13.98;;;8.55;;
29688;SDS011;16600;47.444;8.334;2023-09-30T14:34:49;12.13;;;7.28;;
29688;SDS011;16600;47.444;8.334;2023-09-30T14:37:15;16.17;;;8.48;;
29688;SDS011;16600;47.444;8.334;2023-09-30T14:39:47;13.77;;;8.18;;
29688;SDS011;16600;47.444;8.334;2023-09-30T14:42:13;16.80;;;7.85;;
29688;SDS011;16600;47.444;8.334;2023-09-30T14:44:39;14.60;;;7.97;;
29688;SDS011;16600;47.444;8.334;2023-09-30T14:47:09;13.07;;;8.18;;
29688;SDS011;16600;47.444;8.334;2023-09-30T14:49:38;14.05;;;8.57;;
29688;SDS011;16600;47.444;8.334;2023-09-30T14:52:05;15.90;;;6.75;;
29688;SDS011;16600;47.444;8.334;2023-09-30T14:54:34;13.13;;;7.45;;
29688;SDS011;16600;47.444;8.334;2023-09-30T14:57:01;15.32;;;8.18;;
29688;SDS011;16600;47.444;8.334;2023-09-30T14:59:32;8.38;;;5.95;;
29688;SDS011;16600;47.444;8.334;2023-09-30T15:01:58;13.50;;;7.32;;